Carnation, Washington
Current Conditions -  °F | °C
As of 4:31 AM on Sunday 23 Nov 2014 (Local Time) from KRNT Reporting Station
Light Rain Light Rain  
Wind Chill: 42°   Ceiling: 5000
Heat Index: 48°   Visibility: 6mi
Dew Point: 43°   Wind: 14mph
Humidity: 83%   Direction: 160°SSE
Pressure: 30.13"   Gusts: NA
Location:  47.65°N, 121.91°W
Report Text: KRNT 231231Z AUTO 16012KT 6SM -RA SCT028 BKN050 OVC070 09/06 A3013 RMK AO2 RAB1154E15B28 P0003 T00890061
Loading
Personal Weather Stations






























Interactive Weather Map New forecast layout! Learn more

10-Day Weather Forecast

Advertisements
Track Severe Weather on mobile